createdAt,value
2022-12-01T00:00:09.940Z,17.55
2022-12-01T00:02:36.580Z,18.33
2022-12-01T00:05:03.471Z,19.35
2022-12-01T00:07:30.165Z,21.55
2022-12-01T00:10:15.415Z,24.13
2022-12-01T00:12:43.544Z,25.65
2022-12-01T00:15:13.123Z,22.13
2022-12-01T00:17:39.633Z,26.38
2022-12-01T00:20:07.123Z,21.02
2022-12-01T00:22:33.623Z,19.65
2022-12-01T00:25:00.196Z,24.70
2022-12-01T00:27:26.728Z,22.80
2022-12-01T00:29:53.181Z,16.50
2022-12-01T00:32:19.674Z,19.77
2022-12-01T00:34:46.186Z,24.00
2022-12-01T00:37:12.718Z,25.90
2022-12-01T00:39:39.193Z,19.92
2022-12-01T00:42:10.115Z,25.65
2022-12-01T00:44:39.716Z,17.25
2022-12-01T00:47:06.433Z,19.17
2022-12-01T00:49:32.912Z,22.08
2022-12-01T00:51:59.362Z,20.88
2022-12-01T00:54:25.863Z,19.02
2022-12-01T00:56:52.351Z,19.63
2022-12-01T00:59:18.890Z,21.95
2022-12-01T01:01:45.418Z,17.38
2022-12-01T01:04:12.085Z,23.60
2022-12-01T01:06:38.580Z,18.67
2022-12-01T01:09:05.046Z,21.58
2022-12-01T01:11:31.615Z,20.15
2022-12-01T01:13:59.476Z,19.70
2022-12-01T01:16:26.918Z,28.13
2022-12-01T01:18:53.455Z,19.17
2022-12-01T01:21:22.103Z,22.02
2022-12-01T01:23:49.443Z,18.80
2022-12-01T01:26:28.004Z,25.33
2022-12-01T01:28:57.703Z,25.17
2022-12-01T01:31:26.725Z,18.55
2022-12-01T01:33:54.672Z,26.63
2022-12-01T01:36:21.238Z,26.25
2022-12-01T01:38:51.073Z,23.70
2022-12-01T01:41:18.951Z,21.42
2022-12-01T01:43:46.895Z,27.63
2022-12-01T01:46:17.580Z,27.00
2022-12-01T01:48:49.843Z,28.83
2022-12-01T01:51:20.173Z,24.83
2022-12-01T01:53:47.524Z,28.35
2022-12-01T01:56:14.013Z,24.58
2022-12-01T01:58:41.500Z,24.17
2022-12-01T02:01:08.123Z,20.65
2022-12-01T02:03:37.114Z,27.88
2022-12-01T02:06:05.319Z,20.33
2022-12-01T02:08:35.541Z,21.40
2022-12-01T02:11:10.972Z,28.85
2022-12-01T02:13:37.514Z,24.65
2022-12-01T02:16:14.024Z,24.00
2022-12-01T02:19:10.305Z,21.90
2022-12-01T02:21:58.031Z,24.38
2022-12-01T02:24:39.626Z,27.67
2022-12-01T02:27:20.052Z,27.98
2022-12-01T02:30:07.870Z,24.88
2022-12-01T02:32:53.422Z,18.55
2022-12-01T02:35:35.646Z,28.85
2022-12-01T02:38:19.907Z,29.60
2022-12-01T02:40:50.832Z,28.73
2022-12-01T02:43:26.142Z,34.35
2022-12-01T02:46:02.642Z,31.63
2022-12-01T02:48:38.497Z,32.17
2022-12-01T02:51:19.878Z,27.75
2022-12-01T02:53:46.798Z,21.63
2022-12-01T02:56:16.006Z,21.33
2022-12-01T02:58:43.759Z,29.85
2022-12-01T03:01:33.767Z,33.90
2022-12-01T03:04:09.615Z,30.17
2022-12-01T03:07:02.403Z,29.10
2022-12-01T03:09:46.059Z,27.17
2022-12-01T03:12:15.590Z,39.97
2022-12-01T03:15:08.231Z,33.13
2022-12-01T03:17:47.373Z,26.17
2022-12-01T03:20:25.641Z,30.65
2022-12-01T03:22:59.981Z,31.30
2022-12-01T03:25:29.166Z,28.65
2022-12-01T03:28:20.612Z,39.30
2022-12-01T03:30:46.544Z,31.75
2022-12-01T03:33:20.917Z,32.55
2022-12-01T03:35:50.384Z,37.17
2022-12-01T03:38:27.736Z,44.22
2022-12-01T03:40:59.367Z,35.17
2022-12-01T03:43:31.938Z,33.65
2022-12-01T03:46:15.193Z,30.20
2022-12-01T03:48:42.308Z,38.45
2022-12-01T03:51:35.564Z,30.10
2022-12-01T03:54:26.166Z,32.20
2022-12-01T03:56:59.487Z,31.00
2022-12-01T03:59:27.625Z,30.15
2022-12-01T04:01:54.278Z,26.83
2022-12-01T04:04:20.875Z,30.77
2022-12-01T04:06:50.177Z,26.38
2022-12-01T04:09:17.293Z,35.92
2022-12-01T04:12:02.470Z,35.38
2022-12-01T04:14:30.067Z,30.50
2022-12-01T04:16:56.653Z,39.28
2022-12-01T04:19:23.136Z,32.20
2022-12-01T04:21:49.812Z,35.47
2022-12-01T04:24:16.663Z,34.75
2022-12-01T04:26:43.493Z,27.08
2022-12-01T04:29:12.071Z,32.35
2022-12-01T04:31:38.915Z,26.30
2022-12-01T04:34:05.826Z,28.58
2022-12-01T04:36:34.310Z,27.40
2022-12-01T04:39:01.437Z,27.85
2022-12-01T04:41:28.014Z,20.77
2022-12-01T04:43:55.346Z,18.33
2022-12-01T04:46:23.326Z,25.20
2022-12-01T04:48:49.961Z,24.70
2022-12-01T04:51:16.856Z,21.45
2022-12-01T04:53:43.335Z,22.50
2022-12-01T04:56:09.985Z,24.80
2022-12-01T04:58:40.404Z,18.00
2022-12-01T05:01:10.163Z,22.85
2022-12-01T05:03:41.829Z,26.73
2022-12-01T05:06:11.683Z,25.40
2022-12-01T05:08:38.156Z,24.00
2022-12-01T05:11:07.639Z,24.60
2022-12-01T05:13:36.784Z,26.52
2022-12-01T05:16:12.147Z,22.85
2022-12-01T05:18:38.803Z,23.88
2022-12-01T05:21:07.019Z,23.92
2022-12-01T05:23:35.083Z,31.17
2022-12-01T05:26:02.790Z,28.35
2022-12-01T05:28:29.555Z,26.17
2022-12-01T05:30:56.248Z,21.17
2022-12-01T05:33:23.993Z,23.10
2022-12-01T05:35:50.959Z,19.40
2022-12-01T05:38:18.095Z,22.80
2022-12-01T05:40:51.337Z,24.40
2022-12-01T05:43:19.407Z,18.42
2022-12-01T05:45:50.023Z,21.75
2022-12-01T05:48:17.592Z,24.27
2022-12-01T05:50:44.341Z,26.58
2022-12-01T05:53:14.231Z,22.80
2022-12-01T05:55:40.773Z,23.05
2022-12-01T05:58:07.647Z,27.02
2022-12-01T06:00:35.149Z,28.08
2022-12-01T06:03:02.129Z,25.17
2022-12-01T06:05:28.855Z,28.05
2022-12-01T06:07:55.408Z,27.08
2022-12-01T06:10:22.127Z,27.50
2022-12-01T06:12:48.720Z,25.70
2022-12-01T06:15:15.281Z,26.35
2022-12-01T06:17:41.890Z,34.80
2022-12-01T06:20:09.438Z,20.35
2022-12-01T06:22:35.981Z,26.60
2022-12-01T06:25:02.467Z,29.02
2022-12-01T06:27:28.987Z,32.20
2022-12-01T06:29:55.465Z,26.48
2022-12-01T06:32:21.933Z,34.25
2022-12-01T06:34:48.417Z,22.95
2022-12-01T06:37:15.704Z,23.90
2022-12-01T06:39:42.560Z,29.15
2022-12-01T06:42:09.145Z,32.17
2022-12-01T06:44:35.642Z,39.33
2022-12-01T06:47:02.273Z,31.60
2022-12-01T06:49:28.772Z,33.75
2022-12-01T06:51:55.259Z,36.40
2022-12-01T06:54:21.789Z,34.97
2022-12-01T06:56:48.252Z,37.47
2022-12-01T06:59:15.074Z,32.90
2022-12-01T07:01:41.921Z,21.92
2022-12-01T07:04:08.412Z,30.50
2022-12-01T07:06:34.841Z,27.08
2022-12-01T07:09:01.359Z,31.20
2022-12-01T07:11:27.927Z,32.58
2022-12-01T07:13:55.713Z,32.72
2022-12-01T07:16:22.908Z,35.47
2022-12-01T07:18:49.988Z,30.20
2022-12-01T07:21:17.129Z,36.20
2022-12-01T07:23:43.644Z,25.92
2022-12-01T07:26:13.195Z,24.98
2022-12-01T07:28:39.900Z,32.22
2022-12-01T07:31:09.458Z,27.70
2022-12-01T07:33:36.769Z,31.20
2022-12-01T07:36:04.238Z,28.83
2022-12-01T07:38:32.118Z,30.25
2022-12-01T07:41:04.116Z,29.08
2022-12-01T07:46:04.922Z,21.17
2022-12-01T07:48:32.459Z,29.88
2022-12-01T07:50:58.942Z,27.45
2022-12-01T07:53:25.528Z,29.48
2022-12-01T07:55:52.104Z,28.58
2022-12-01T07:58:18.639Z,25.63
2022-12-01T08:00:45.105Z,24.55
2022-12-01T08:03:11.673Z,29.30
2022-12-01T08:05:38.160Z,30.05
2022-12-01T08:08:04.999Z,25.88
2022-12-01T08:10:31.567Z,26.45
2022-12-01T08:12:58.042Z,30.85
2022-12-01T08:15:24.703Z,24.27
2022-12-01T08:17:51.245Z,30.67
2022-12-01T08:20:22.426Z,32.97
2022-12-01T08:22:50.335Z,36.72
2022-12-01T08:25:16.962Z,38.25
2022-12-01T08:27:43.442Z,27.73
2022-12-01T08:30:10.326Z,29.83
2022-12-01T08:32:36.805Z,32.03
2022-12-01T08:35:03.551Z,35.85
2022-12-01T08:37:30.021Z,25.65
2022-12-01T08:39:56.503Z,27.25
2022-12-01T08:42:22.970Z,29.48
2022-12-01T08:44:49.474Z,29.35
2022-12-01T08:47:18.893Z,35.10
2022-12-01T08:49:45.700Z,29.13
2022-12-01T08:52:12.215Z,30.58
2022-12-01T08:54:38.695Z,29.20
2022-12-01T08:57:05.206Z,39.20
2022-12-01T08:59:31.694Z,36.17
2022-12-01T09:02:00.460Z,24.50
2022-12-01T09:06:57.598Z,33.53
2022-12-01T09:09:27.409Z,28.52
2022-12-01T09:11:54.913Z,35.40
2022-12-01T09:14:22.744Z,24.88
2022-12-01T09:16:50.328Z,30.80
2022-12-01T09:19:24.106Z,32.83
2022-12-01T09:21:51.362Z,27.65
2022-12-01T09:24:18.007Z,34.42
2022-12-01T09:26:44.582Z,33.75
2022-12-01T09:29:13.686Z,39.85
2022-12-01T09:31:41.554Z,35.65
2022-12-01T09:34:12.549Z,32.10
2022-12-01T09:36:39.242Z,29.23
2022-12-01T09:39:07.977Z,33.95
2022-12-01T09:41:39.305Z,30.65
2022-12-01T09:44:13.864Z,32.67
2022-12-01T09:46:46.802Z,27.35
2022-12-01T09:49:24.097Z,42.03
2022-12-01T09:51:53.726Z,29.52
2022-12-01T09:54:20.377Z,32.50
2022-12-01T09:56:50.643Z,34.25
2022-12-01T09:59:23.470Z,34.78
2022-12-01T10:02:00.154Z,37.30
2022-12-01T10:04:41.647Z,37.17
2022-12-01T10:07:29.551Z,34.80
2022-12-01T10:10:01.004Z,27.30
2022-12-01T10:12:34.155Z,33.25
2022-12-01T10:15:12.737Z,24.73
2022-12-01T10:18:12.690Z,36.40
2022-12-01T10:21:00.824Z,32.42
2022-12-01T10:23:39.556Z,30.85
2022-12-01T10:26:20.521Z,37.88
2022-12-01T10:29:19.552Z,30.48
2022-12-01T10:31:49.117Z,28.45
2022-12-01T10:34:39.206Z,32.78
2022-12-01T10:37:12.566Z,29.00
2022-12-01T10:39:43.174Z,28.15
2022-12-01T10:42:14.879Z,33.83
2022-12-01T10:44:42.515Z,26.58
2022-12-01T10:47:21.733Z,34.22
2022-12-01T10:49:48.978Z,29.02
2022-12-01T10:52:41.395Z,18.63
2022-12-01T10:55:27.871Z,25.63
2022-12-01T10:57:57.793Z,25.85
2022-12-01T11:03:25.907Z,31.67
2022-12-01T11:05:55.497Z,33.55
2022-12-01T11:08:24.368Z,26.38
2022-12-01T11:10:52.120Z,33.22
2022-12-01T11:13:28.415Z,25.75
2022-12-01T11:16:00.019Z,27.65
2022-12-01T11:18:34.530Z,24.52
2022-12-01T11:21:26.304Z,25.05
2022-12-01T11:23:55.504Z,26.38
2022-12-01T11:26:27.128Z,17.48
2022-12-01T11:29:02.729Z,27.55
2022-12-01T11:31:56.047Z,25.30
2022-12-01T11:34:24.587Z,22.33
2022-12-01T11:36:54.705Z,22.52
2022-12-01T11:39:32.342Z,28.63
2022-12-01T11:42:04.963Z,23.52
2022-12-01T11:47:26.454Z,23.17
2022-12-01T11:49:58.919Z,27.63
2022-12-01T11:52:45.062Z,25.13
2022-12-01T11:55:11.522Z,23.65
2022-12-01T11:57:44.309Z,22.48
2022-12-01T12:00:14.151Z,22.17
2022-12-01T12:02:59.666Z,24.55
2022-12-01T12:05:42.181Z,24.98
2022-12-01T12:08:39.372Z,28.13
2022-12-01T12:11:31.308Z,26.10
2022-12-01T12:14:19.881Z,34.88
2022-12-01T12:17:01.544Z,30.58
2022-12-01T12:20:07.050Z,21.27
2022-12-01T12:23:04.849Z,23.27
2022-12-01T12:25:34.358Z,27.65
2022-12-01T12:28:22.748Z,33.00
2022-12-01T12:31:02.590Z,28.27
2022-12-01T12:33:34.834Z,23.52
2022-12-01T12:36:16.546Z,30.23
2022-12-01T12:38:58.339Z,35.00
2022-12-01T12:41:46.515Z,22.05
2022-12-01T12:44:37.362Z,29.67
2022-12-01T12:47:19.249Z,28.45
2022-12-01T12:50:06.413Z,27.15
2022-12-01T12:52:37.199Z,33.40
2022-12-01T12:55:15.500Z,31.13
2022-12-01T12:57:53.961Z,27.17
2022-12-01T13:00:26.172Z,20.38
2022-12-01T13:03:14.543Z,24.25
2022-12-01T13:05:50.054Z,25.83
2022-12-01T13:08:21.912Z,34.50
2022-12-01T13:11:10.235Z,31.23
2022-12-01T13:14:04.592Z,32.70
2022-12-01T13:16:36.836Z,31.80
2022-12-01T13:19:23.599Z,29.65
2022-12-01T13:21:52.539Z,34.80
2022-12-01T13:24:23.991Z,30.95
2022-12-01T13:27:06.082Z,40.47
2022-12-01T13:29:43.651Z,32.00
2022-12-01T13:32:25.428Z,33.75
2022-12-01T13:34:51.968Z,20.73
2022-12-01T13:37:27.010Z,25.88
2022-12-01T13:39:55.371Z,38.28
2022-12-01T13:42:25.155Z,38.33
2022-12-01T13:44:53.110Z,35.35
2022-12-01T13:47:19.538Z,40.33
2022-12-01T13:49:50.597Z,34.22
2022-12-01T13:52:25.699Z,28.75
2022-12-01T13:55:27.237Z,37.40
2022-12-01T13:57:56.715Z,39.72
2022-12-01T14:00:27.291Z,43.40
2022-12-01T14:03:12.425Z,45.13
2022-12-01T14:05:42.109Z,41.83
2022-12-01T14:08:29.059Z,50.20
2022-12-01T14:11:02.861Z,42.10
2022-12-01T14:13:31.324Z,37.15
2022-12-01T14:16:03.462Z,39.88
2022-12-01T14:18:39.838Z,40.63
2022-12-01T14:21:09.494Z,40.72
2022-12-01T14:23:59.592Z,38.47
2022-12-01T14:26:28.992Z,43.97
2022-12-01T14:28:55.568Z,38.03
2022-12-01T14:31:23.250Z,31.70
2022-12-01T14:33:58.887Z,47.25
2022-12-01T14:36:48.449Z,33.53
2022-12-01T14:39:22.149Z,30.55
2022-12-01T14:42:00.702Z,51.83
2022-12-01T14:44:33.137Z,41.50
2022-12-01T14:47:17.906Z,38.85
2022-12-01T14:49:50.145Z,40.22
2022-12-01T14:52:28.822Z,50.05
2022-12-01T14:55:02.806Z,44.05
2022-12-01T14:57:34.408Z,34.05
2022-12-01T15:00:14.481Z,37.55
2022-12-01T15:02:57.790Z,44.28
2022-12-01T15:05:27.327Z,42.63
2022-12-01T15:08:18.757Z,53.33
2022-12-01T15:10:53.015Z,52.25
2022-12-01T15:13:33.804Z,41.90
2022-12-01T15:16:03.387Z,47.88
2022-12-01T15:18:39.223Z,39.75
2022-12-01T15:21:19.665Z,49.47
2022-12-01T15:24:38.539Z,37.50
2022-12-01T15:27:24.747Z,55.10
2022-12-01T15:29:52.359Z,52.22
2022-12-01T15:32:21.596Z,33.25
2022-12-01T15:34:51.708Z,44.28
2022-12-01T15:37:21.815Z,46.40
2022-12-01T15:40:35.709Z,43.50
2022-12-01T15:42:45.346Z,44.88
2022-12-01T15:45:14.776Z,46.10
2022-12-01T15:47:42.923Z,56.47
2022-12-01T15:50:42.647Z,53.38
2022-12-01T15:53:21.625Z,37.03
2022-12-01T15:55:55.534Z,45.42
2022-12-01T15:58:30.090Z,59.05
2022-12-01T16:01:01.761Z,41.03
2022-12-01T16:03:29.443Z,53.08
2022-12-01T16:05:57.231Z,40.63
2022-12-01T16:08:27.162Z,38.55
2022-12-01T16:11:17.768Z,46.60
2022-12-01T16:13:48.051Z,49.83
2022-12-01T16:16:44.959Z,37.25
2022-12-01T16:19:11.503Z,26.40
2022-12-01T16:21:55.685Z,48.00
2022-12-01T16:24:23.716Z,38.60
2022-12-01T16:26:54.502Z,39.47
2022-12-01T16:29:23.613Z,34.97
2022-12-01T16:32:19.185Z,32.05
2022-12-01T16:34:57.347Z,38.50
2022-12-01T16:37:24.137Z,47.53
2022-12-01T16:39:50.811Z,50.90
2022-12-01T16:42:20.960Z,48.13
2022-12-01T16:44:49.061Z,43.88
2022-12-01T16:47:21.793Z,41.67
2022-12-01T16:49:49.228Z,34.33
2022-12-01T16:52:43.252Z,42.28
2022-12-01T16:55:03.140Z,42.00
2022-12-01T16:57:29.615Z,44.85
2022-12-01T16:59:56.102Z,45.90
2022-12-01T17:02:22.718Z,34.65
2022-12-01T17:04:49.575Z,51.97
2022-12-01T17:07:16.283Z,37.03
2022-12-01T17:09:42.789Z,33.85
2022-12-01T17:12:09.942Z,43.17
2022-12-01T17:14:36.522Z,34.25
2022-12-01T17:17:03.632Z,45.28
2022-12-01T17:19:30.116Z,41.92
2022-12-01T17:21:56.926Z,24.73
2022-12-01T17:24:23.488Z,46.08
2022-12-01T17:26:49.956Z,41.00
2022-12-01T17:29:16.438Z,29.73
2022-12-01T17:31:43.063Z,30.92
2022-12-01T17:34:09.835Z,34.42
2022-12-01T17:36:36.596Z,32.75
2022-12-01T17:39:03.153Z,40.05
2022-12-01T17:41:35.449Z,34.63
2022-12-01T17:44:04.052Z,43.45
2022-12-01T17:46:31.215Z,35.88
2022-12-01T17:48:58.566Z,33.17
2022-12-01T17:51:25.065Z,37.85
2022-12-01T17:53:53.704Z,33.80
2022-12-01T17:56:20.225Z,37.97
2022-12-01T17:58:50.303Z,34.35
2022-12-01T18:01:18.840Z,25.60
2022-12-01T18:03:46.367Z,36.50
2022-12-01T18:06:13.549Z,33.00
2022-12-01T18:08:40.961Z,39.70
2022-12-01T18:11:10.318Z,35.63
2022-12-01T18:13:42.193Z,20.73
2022-12-01T18:16:13.936Z,30.77
2022-12-01T18:18:40.564Z,22.85
2022-12-01T18:21:13.210Z,31.38
2022-12-01T18:23:40.095Z,27.25
2022-12-01T18:26:15.485Z,48.88
2022-12-01T18:28:43.511Z,49.20
2022-12-01T18:31:12.940Z,45.25
2022-12-01T18:33:41.407Z,44.83
2022-12-01T18:36:20.141Z,40.30
2022-12-01T18:38:47.433Z,39.00
2022-12-01T18:41:14.808Z,39.97
2022-12-01T18:43:41.791Z,32.17
2022-12-01T18:46:08.929Z,47.15
2022-12-01T18:48:35.504Z,45.03
2022-12-01T18:51:03.845Z,47.65
2022-12-01T18:53:30.762Z,47.67
2022-12-01T18:55:57.263Z,49.53
2022-12-01T18:58:23.748Z,37.00
2022-12-01T19:00:50.334Z,49.33
2022-12-01T19:03:16.914Z,39.13
2022-12-01T19:05:43.417Z,65.03
2022-12-01T19:08:09.996Z,43.63
2022-12-01T19:10:36.736Z,35.55
2022-12-01T19:13:03.908Z,35.50
2022-12-01T19:15:30.671Z,50.20
2022-12-01T19:17:57.404Z,32.17
2022-12-01T19:20:23.915Z,44.03
2022-12-01T19:22:50.526Z,44.90
2022-12-01T19:25:17.160Z,53.03
2022-12-01T19:27:43.624Z,42.92
2022-12-01T19:30:10.496Z,40.33
2022-12-01T19:32:37.108Z,41.28
2022-12-01T19:35:04.549Z,46.53
2022-12-01T19:37:32.196Z,40.35
2022-12-01T19:39:58.961Z,30.83
2022-12-01T19:42:25.554Z,38.78
2022-12-01T19:44:52.240Z,44.08
2022-12-01T19:47:22.148Z,28.48
2022-12-01T19:49:49.183Z,41.35
2022-12-01T19:52:16.007Z,35.72
2022-12-01T19:54:42.692Z,44.72
2022-12-01T19:57:09.191Z,43.80
2022-12-01T19:59:35.720Z,44.78
2022-12-01T20:02:02.227Z,41.50
2022-12-01T20:04:28.884Z,42.53
2022-12-01T20:06:55.407Z,28.20
2022-12-01T20:09:22.575Z,46.05
2022-12-01T20:11:49.107Z,47.70
2022-12-01T20:14:15.844Z,48.42
2022-12-01T20:16:42.460Z,41.40
2022-12-01T20:19:10.275Z,39.70
2022-12-01T20:21:42.109Z,44.00
2022-12-01T20:24:12.528Z,42.80
2022-12-01T20:26:45.802Z,47.72
2022-12-01T20:29:15.805Z,44.38
2022-12-01T20:31:43.369Z,41.15
2022-12-01T20:34:17.094Z,38.03
2022-12-01T20:36:44.336Z,26.20
2022-12-01T20:39:11.934Z,33.33
2022-12-01T20:41:40.094Z,28.85
2022-12-01T20:44:07.984Z,33.92
2022-12-01T20:46:36.393Z,30.38
2022-12-01T20:49:04.126Z,31.02
2022-12-01T20:51:33.566Z,25.48
2022-12-01T20:54:26.776Z,17.63
2022-12-01T20:56:48.127Z,26.88
2022-12-01T20:59:14.688Z,21.35
2022-12-01T21:01:41.271Z,26.77
2022-12-01T21:04:08.551Z,23.13
2022-12-01T21:06:35.281Z,25.75
2022-12-01T21:09:03.039Z,26.80
2022-12-01T21:11:52.639Z,30.70
2022-12-01T21:14:35.218Z,28.48
2022-12-01T21:17:12.381Z,17.83
2022-12-01T21:20:25.490Z,24.30
2022-12-01T21:22:53.462Z,19.98
2022-12-01T21:25:23.358Z,29.02
2022-12-01T21:27:50.416Z,17.25
2022-12-01T21:30:18.766Z,27.65
2022-12-01T21:32:46.873Z,29.13
2022-12-01T21:35:18.204Z,24.70
2022-12-01T21:37:45.650Z,20.67
2022-12-01T21:40:20.002Z,20.30
2022-12-01T21:42:47.028Z,22.92
2022-12-01T21:45:27.444Z,22.85
2022-12-01T21:47:58.982Z,23.63
2022-12-01T21:50:27.167Z,21.63
2022-12-01T21:52:53.715Z,19.17
2022-12-01T21:55:20.148Z,22.17
2022-12-01T21:57:47.836Z,23.08
2022-12-01T22:00:33.726Z,24.23
2022-12-01T22:03:00.279Z,22.10
2022-12-01T22:05:40.336Z,22.50
2022-12-01T22:08:23.136Z,25.80
2022-12-01T22:11:09.580Z,13.05
2022-12-01T22:13:39.728Z,23.85
2022-12-01T22:16:27.695Z,24.90
2022-12-01T22:18:56.738Z,26.77
2022-12-01T22:21:23.456Z,25.52
2022-12-01T22:23:57.150Z,25.80
2022-12-01T22:26:25.061Z,21.77
2022-12-01T22:28:56.194Z,22.15
2022-12-01T22:31:23.048Z,20.23
2022-12-01T22:34:02.869Z,24.75
2022-12-01T22:36:31.893Z,24.35
2022-12-01T22:38:58.790Z,22.55
2022-12-01T22:41:26.815Z,21.85
2022-12-01T22:44:01.985Z,27.80
2022-12-01T22:46:32.742Z,25.85
2022-12-01T22:49:17.721Z,23.55
2022-12-01T22:51:48.382Z,22.60
2022-12-01T22:54:14.837Z,29.88
2022-12-01T22:56:44.313Z,22.23
2022-12-01T22:59:38.891Z,24.25
2022-12-01T23:02:25.938Z,31.33
2022-12-01T23:04:59.435Z,22.42
2022-12-01T23:07:30.213Z,21.25
2022-12-01T23:10:01.232Z,15.43
2022-12-01T23:12:30.904Z,29.75
2022-12-01T23:15:14.805Z,25.10
2022-12-01T23:17:41.434Z,17.60
2022-12-01T23:20:10.743Z,28.02
2022-12-01T23:22:38.160Z,22.70
2022-12-01T23:25:16.804Z,19.10
2022-12-01T23:27:45.011Z,29.42
2022-12-01T23:30:13.046Z,31.10
2022-12-01T23:32:39.752Z,28.65
2022-12-01T23:35:13.501Z,22.48
2022-12-01T23:37:42.377Z,26.38
2022-12-01T23:40:35.341Z,24.88
2022-12-01T23:43:23.772Z,22.98
2022-12-01T23:46:00.868Z,21.00
2022-12-01T23:48:33.974Z,29.95
2022-12-01T23:51:00.783Z,37.30
2022-12-01T23:53:30.054Z,22.48
2022-12-01T23:56:04.843Z,25.67
2022-12-01T23:58:31.339Z,23.73
